createdAt,value
2023-04-17T00:00:49.534Z,1018.11
2023-04-17T00:01:49.615Z,1018.11
2023-04-17T00:02:49.683Z,1018.16
2023-04-17T00:03:49.650Z,1018.18
2023-04-17T00:04:49.793Z,1018.17
2023-04-17T00:05:49.531Z,1018.16
2023-04-17T00:06:49.525Z,1018.12
2023-04-17T00:07:49.525Z,1018.15
2023-04-17T00:08:49.518Z,1018.15
2023-04-17T00:09:49.519Z,1018.12
2023-04-17T00:11:00.201Z,1018.16
2023-04-17T00:11:49.517Z,1018.14
2023-04-17T00:12:49.516Z,1018.15
2023-04-17T00:13:49.534Z,1018.17
2023-04-17T00:14:49.508Z,1018.16
2023-04-17T00:15:49.526Z,1018.17
2023-04-17T00:16:49.601Z,1018.19
2023-04-17T00:17:49.537Z,1018.22
2023-04-17T00:18:49.501Z,1018.18
2023-04-17T00:19:49.506Z,1018.20
2023-04-17T00:20:49.496Z,1018.19
2023-04-17T00:21:49.505Z,1018.16
2023-04-17T00:22:49.496Z,1018.17
2023-04-17T00:23:49.495Z,1018.16
2023-04-17T00:24:49.502Z,1018.20
2023-04-17T00:25:49.492Z,1018.19
2023-04-17T00:26:49.481Z,1018.15
2023-04-17T00:27:49.485Z,1018.22
2023-04-17T00:28:49.481Z,1018.21
2023-04-17T00:29:49.516Z,1018.26
2023-04-17T00:30:49.479Z,1018.27
2023-04-17T00:31:49.594Z,1018.24
2023-04-17T00:32:49.515Z,1018.22
2023-04-17T00:33:49.475Z,1018.27
2023-04-17T00:34:49.467Z,1018.23
2023-04-17T00:35:49.474Z,1018.22
2023-04-17T00:36:49.462Z,1018.26
2023-04-17T00:37:49.476Z,1018.25
2023-04-17T00:38:49.463Z,1018.25
2023-04-17T00:39:49.461Z,1018.25
2023-04-17T00:40:49.462Z,1018.26
2023-04-17T00:41:49.464Z,1018.25
2023-04-17T00:42:49.455Z,1018.26
2023-04-17T00:43:49.458Z,1018.25
2023-04-17T00:44:49.460Z,1018.28
2023-04-17T00:45:49.515Z,1018.27
2023-04-17T00:46:49.445Z,1018.27
2023-04-17T00:47:49.514Z,1018.24
2023-04-17T00:48:49.447Z,1018.28
2023-04-17T00:49:49.445Z,1018.25
2023-04-17T00:50:49.437Z,1018.30
2023-04-17T00:51:49.443Z,1018.27
2023-04-17T00:52:49.437Z,1018.29
2023-04-17T00:53:49.453Z,1018.31
2023-04-17T00:54:49.753Z,1018.30
2023-04-17T00:55:49.437Z,1018.29
2023-04-17T00:56:49.427Z,1018.29
2023-04-17T00:57:49.429Z,1018.31
2023-04-17T00:58:49.429Z,1018.31
2023-04-17T00:59:49.425Z,1018.34
2023-04-17T01:00:49.476Z,1018.27
2023-04-17T01:01:49.556Z,1018.29
2023-04-17T01:02:49.506Z,1018.29
2023-04-17T01:03:49.619Z,1018.29
2023-04-17T01:04:49.414Z,1018.27
2023-04-17T01:05:49.415Z,1018.29
2023-04-17T01:06:49.409Z,1018.28
2023-04-17T01:07:49.410Z,1018.29
2023-04-17T01:08:49.413Z,1018.28
2023-04-17T01:09:49.406Z,1018.29
2023-04-17T01:10:49.403Z,1018.25
2023-04-17T01:11:49.410Z,1018.28
2023-04-17T01:12:49.408Z,1018.30
2023-04-17T01:13:49.390Z,1018.26
2023-04-17T01:14:49.396Z,1018.26
2023-04-17T01:15:49.388Z,1018.28
2023-04-17T01:16:49.468Z,1018.27
2023-04-17T01:17:49.446Z,1018.27
2023-04-17T01:18:49.400Z,1018.24
2023-04-17T01:19:49.418Z,1018.27
2023-04-17T01:20:49.379Z,1018.27
2023-04-17T01:21:49.380Z,1018.25
2023-04-17T01:22:49.374Z,1018.25
2023-04-17T01:23:49.380Z,1018.19
2023-04-17T01:24:49.369Z,1018.26
2023-04-17T01:25:49.365Z,1018.28
2023-04-17T01:26:49.369Z,1018.23
2023-04-17T01:27:49.362Z,1018.24
2023-04-17T01:28:49.360Z,1018.26
2023-04-17T01:29:49.366Z,1018.27
2023-04-17T01:30:49.366Z,1018.27
2023-04-17T01:31:49.354Z,1018.26
2023-04-17T01:32:49.383Z,1018.24
2023-04-17T01:33:49.347Z,1018.27
2023-04-17T01:34:49.357Z,1018.24
2023-04-17T01:35:49.368Z,1018.26
2023-04-17T01:36:49.349Z,1018.25
2023-04-17T01:37:49.343Z,1018.23
2023-04-17T01:38:49.348Z,1018.20
2023-04-17T01:39:49.337Z,1018.19
2023-04-17T01:40:49.347Z,1018.26
2023-04-17T01:41:49.335Z,1018.27
2023-04-17T01:42:49.336Z,1018.25
2023-04-17T01:43:49.333Z,1018.24
2023-04-17T01:44:49.326Z,1018.26
2023-04-17T01:45:49.348Z,1018.28
2023-04-17T01:46:49.334Z,1018.25
2023-04-17T01:47:49.400Z,1018.27
2023-04-17T01:48:49.322Z,1018.27
2023-04-17T01:49:49.325Z,1018.26
2023-04-17T01:50:49.323Z,1018.27
2023-04-17T01:51:49.333Z,1018.29
2023-04-17T01:52:49.324Z,1018.28
2023-04-17T01:53:49.317Z,1018.31
2023-04-17T01:54:49.309Z,1018.30
2023-04-17T01:55:49.304Z,1018.29
2023-04-17T01:56:49.306Z,1018.29
2023-04-17T01:57:49.299Z,1018.28
2023-04-17T01:58:49.306Z,1018.28
2023-04-17T01:59:49.300Z,1018.33
2023-04-17T02:00:49.299Z,1018.28
2023-04-17T02:01:49.309Z,1018.29
2023-04-17T02:02:49.422Z,1018.27
2023-04-17T02:03:49.453Z,1018.31
2023-04-17T02:04:49.289Z,1018.30
2023-04-17T02:05:49.287Z,1018.27
2023-04-17T02:06:49.286Z,1018.34
2023-04-17T02:07:49.299Z,1018.30
2023-04-17T02:08:49.281Z,1018.33
2023-04-17T02:09:49.282Z,1018.31
2023-04-17T02:10:49.289Z,1018.33
2023-04-17T02:11:49.268Z,1018.35
2023-04-17T02:12:49.274Z,1018.36
2023-04-17T02:13:49.271Z,1018.39
2023-04-17T02:14:49.270Z,1018.37
2023-04-17T02:15:49.281Z,1018.36
2023-04-17T02:16:49.258Z,1018.35
2023-04-17T02:17:49.292Z,1018.41
2023-04-17T02:18:49.260Z,1018.39
2023-04-17T02:19:49.252Z,1018.39
2023-04-17T02:20:49.256Z,1018.42
2023-04-17T02:21:49.254Z,1018.43
2023-04-17T02:22:49.251Z,1018.41
2023-04-17T02:23:49.275Z,1018.43
2023-04-17T02:24:49.244Z,1018.44
2023-04-17T02:25:49.237Z,1018.44
2023-04-17T02:26:49.243Z,1018.43
2023-04-17T02:27:49.233Z,1018.48
2023-04-17T02:28:49.237Z,1018.48
2023-04-17T02:29:49.229Z,1018.50
2023-04-17T02:30:49.260Z,1018.48
2023-04-17T02:31:49.288Z,1018.45
2023-04-17T02:32:49.252Z,1018.48
2023-04-17T02:33:49.221Z,1018.47
2023-04-17T02:34:49.230Z,1018.45
2023-04-17T02:35:49.232Z,1018.43
2023-04-17T02:36:49.231Z,1018.46
2023-04-17T02:37:49.232Z,1018.48
2023-04-17T02:38:49.216Z,1018.49
2023-04-17T02:39:49.235Z,1018.46
2023-04-17T02:40:49.215Z,1018.48
2023-04-17T02:41:49.204Z,1018.48
2023-04-17T02:42:49.210Z,1018.49
2023-04-17T02:43:49.198Z,1018.48
2023-04-17T02:44:49.198Z,1018.45
2023-04-17T02:45:49.207Z,1018.48
2023-04-17T02:46:49.275Z,1018.48
2023-04-17T02:47:49.272Z,1018.45
2023-04-17T02:48:49.195Z,1018.48
2023-04-17T02:49:49.191Z,1018.51
2023-04-17T02:50:49.195Z,1018.48
2023-04-17T02:51:49.185Z,1018.47
2023-04-17T02:52:49.190Z,1018.48
2023-04-17T02:53:49.186Z,1018.47
2023-04-17T02:54:49.193Z,1018.49
2023-04-17T02:55:49.327Z,1018.53
2023-04-17T02:56:49.178Z,1018.55
2023-04-17T02:57:49.169Z,1018.50
2023-04-17T02:58:49.180Z,1018.51
2023-04-17T02:59:49.170Z,1018.54
2023-04-17T03:00:49.167Z,1018.50
2023-04-17T03:01:49.182Z,1018.53
2023-04-17T03:02:49.310Z,1018.55
2023-04-17T03:03:49.388Z,1018.52
2023-04-17T03:04:49.168Z,1018.57
2023-04-17T03:05:49.155Z,1018.53
2023-04-17T03:06:49.155Z,1018.54
2023-04-17T03:07:49.149Z,1018.51
2023-04-17T03:08:49.147Z,1018.53
2023-04-17T03:09:49.149Z,1018.53
2023-04-17T03:10:49.157Z,1018.57
2023-04-17T03:11:49.163Z,1018.58
2023-04-17T03:12:49.135Z,1018.54
2023-04-17T03:13:49.144Z,1018.53
2023-04-17T03:14:49.142Z,1018.55
2023-04-17T03:15:49.139Z,1018.55
2023-04-17T03:16:49.178Z,1018.56
2023-04-17T03:17:49.187Z,1018.52
2023-04-17T03:18:49.126Z,1018.55
2023-04-17T03:19:49.129Z,1018.57
2023-04-17T03:20:49.119Z,1018.58
2023-04-17T03:21:49.119Z,1018.65
2023-04-17T03:22:49.126Z,1018.65
2023-04-17T03:23:49.106Z,1018.65
2023-04-17T03:24:49.116Z,1018.67
2023-04-17T03:25:49.129Z,1018.68
2023-04-17T03:26:49.120Z,1018.66
2023-04-17T03:27:49.123Z,1018.69
2023-04-17T03:28:49.101Z,1018.67
2023-04-17T03:29:49.103Z,1018.68
2023-04-17T03:30:49.109Z,1018.66
2023-04-17T03:31:49.163Z,1018.73
2023-04-17T03:32:49.153Z,1018.68
2023-04-17T03:33:49.082Z,1018.73
2023-04-17T03:34:49.089Z,1018.75
2023-04-17T03:35:49.080Z,1018.69
2023-04-17T03:36:49.083Z,1018.75
2023-04-17T03:37:49.080Z,1018.73
2023-04-17T03:38:49.074Z,1018.75
2023-04-17T03:39:49.071Z,1018.73
2023-04-17T03:40:49.074Z,1018.78
2023-04-17T03:41:49.067Z,1018.75
2023-04-17T03:42:49.070Z,1018.74
2023-04-17T03:44:28.576Z,1018.80
2023-04-17T03:45:28.626Z,1018.83
2023-04-17T03:46:28.518Z,1018.81
2023-04-17T03:47:28.425Z,1018.84
2023-04-17T03:48:28.424Z,1018.83
2023-04-17T03:49:28.415Z,1018.84
2023-04-17T03:50:28.412Z,1018.81
2023-04-17T03:51:28.403Z,1018.87
2023-04-17T03:52:28.418Z,1018.86
2023-04-17T03:53:28.399Z,1018.85
2023-04-17T03:54:28.406Z,1018.85
2023-04-17T03:55:28.401Z,1018.87
2023-04-17T03:56:28.405Z,1018.87
2023-04-17T03:57:28.403Z,1018.81
2023-04-17T03:58:28.379Z,1018.88
2023-04-17T03:59:28.422Z,1018.86
2023-04-17T04:00:28.398Z,1018.85
2023-04-17T04:01:28.495Z,1018.89
2023-04-17T04:02:28.503Z,1018.88
2023-04-17T04:03:28.480Z,1018.89
2023-04-17T04:04:28.527Z,1018.86
2023-04-17T04:05:28.433Z,1018.93
2023-04-17T04:06:28.355Z,1018.94
2023-04-17T04:07:28.346Z,1018.92
2023-04-17T04:08:28.349Z,1019.01
2023-04-17T04:09:28.342Z,1018.95
2023-04-17T04:10:28.341Z,1018.99
2023-04-17T04:11:28.343Z,1019.00
2023-04-17T04:12:28.341Z,1018.96
2023-04-17T04:13:28.335Z,1018.99
2023-04-17T04:14:28.334Z,1018.99
2023-04-17T04:15:28.322Z,1019.01
2023-04-17T04:16:28.456Z,1019.01
2023-04-17T04:17:28.366Z,1019.08
2023-04-17T04:18:28.314Z,1019.07
2023-04-17T04:19:28.319Z,1019.08
2023-04-17T04:20:28.332Z,1019.05
2023-04-17T04:21:28.307Z,1019.05
2023-04-17T04:22:28.307Z,1019.09
2023-04-17T04:23:28.416Z,1019.10
2023-04-17T04:24:28.323Z,1019.09
2023-04-17T04:25:28.295Z,1019.10
2023-04-17T04:26:28.328Z,1019.11
2023-04-17T04:27:28.296Z,1019.13
2023-04-17T04:28:28.376Z,1019.12
2023-04-17T04:29:28.292Z,1019.12
2023-04-17T04:30:28.285Z,1019.16
2023-04-17T04:31:28.319Z,1019.13
2023-04-17T04:32:28.363Z,1019.16
2023-04-17T04:33:28.296Z,1019.17
2023-04-17T04:34:28.274Z,1019.15
2023-04-17T04:35:28.270Z,1019.17
2023-04-17T04:36:28.285Z,1019.16
2023-04-17T04:37:28.264Z,1019.20
2023-04-17T04:38:28.401Z,1019.17
2023-04-17T04:39:28.257Z,1019.22
2023-04-17T04:40:28.261Z,1019.20
2023-04-17T04:41:28.255Z,1019.23
2023-04-17T04:42:28.267Z,1019.21
2023-04-17T04:43:28.247Z,1019.20
2023-04-17T04:44:28.253Z,1019.24
2023-04-17T04:45:28.249Z,1019.23
2023-04-17T04:46:28.275Z,1019.26
2023-04-17T04:47:28.281Z,1019.26
2023-04-17T04:48:28.257Z,1019.28
2023-04-17T04:49:28.234Z,1019.27
2023-04-17T04:50:28.248Z,1019.26
2023-04-17T04:51:28.230Z,1019.25
2023-04-17T04:52:28.234Z,1019.24
2023-04-17T04:53:28.231Z,1019.27
2023-04-17T04:54:28.226Z,1019.29
2023-04-17T04:55:28.216Z,1019.30
2023-04-17T04:56:28.550Z,1019.30
2023-04-17T04:57:28.216Z,1019.31
2023-04-17T04:58:28.204Z,1019.36
2023-04-17T04:59:28.203Z,1019.35
2023-04-17T05:00:28.210Z,1019.38
2023-04-17T05:01:28.359Z,1019.39
2023-04-17T05:02:28.281Z,1019.39
2023-04-17T05:03:28.298Z,1019.44
2023-04-17T05:04:28.382Z,1019.44
2023-04-17T05:05:28.194Z,1019.40
2023-04-17T05:06:28.191Z,1019.42
2023-04-17T05:07:28.186Z,1019.44
2023-04-17T05:08:28.194Z,1019.48
2023-04-17T05:09:28.177Z,1019.47
2023-04-17T05:10:28.183Z,1019.48
2023-04-17T05:11:28.188Z,1019.46
2023-04-17T05:12:28.181Z,1019.48
2023-04-17T05:13:28.177Z,1019.49
2023-04-17T05:14:28.164Z,1019.48
2023-04-17T05:15:28.161Z,1019.52
2023-04-17T05:16:28.224Z,1019.52
2023-04-17T05:17:28.192Z,1019.56
2023-04-17T05:18:28.166Z,1019.54
2023-04-17T05:19:28.157Z,1019.53
2023-04-17T05:20:28.179Z,1019.55
2023-04-17T05:21:30.507Z,1019.59
2023-04-17T05:22:28.154Z,1019.57
2023-04-17T05:23:28.171Z,1019.53
2023-04-17T05:24:28.146Z,1019.61
2023-04-17T05:25:28.147Z,1019.62
2023-04-17T05:26:28.143Z,1019.64
2023-04-17T05:27:28.145Z,1019.63
2023-04-17T05:28:28.138Z,1019.64
2023-04-17T05:29:28.133Z,1019.68
2023-04-17T05:30:28.132Z,1019.69
2023-04-17T05:31:28.151Z,1019.70
2023-04-17T05:32:28.162Z,1019.67
2023-04-17T05:33:28.122Z,1019.68
2023-04-17T05:34:28.119Z,1019.70
2023-04-17T05:35:28.112Z,1019.72
2023-04-17T05:36:28.137Z,1019.73
2023-04-17T05:37:28.132Z,1019.80
2023-04-17T05:38:28.106Z,1019.75
2023-04-17T05:39:28.113Z,1019.79
2023-04-17T05:40:28.102Z,1019.78
2023-04-17T05:41:28.101Z,1019.76
2023-04-17T05:42:28.112Z,1019.79
2023-04-17T05:43:28.090Z,1019.83
2023-04-17T05:44:28.112Z,1019.84
2023-04-17T05:45:28.141Z,1019.80
2023-04-17T05:46:28.103Z,1019.85
2023-04-17T05:47:28.107Z,1019.80
2023-04-17T05:48:28.081Z,1019.85
2023-04-17T05:49:28.082Z,1019.82
2023-04-17T05:50:28.074Z,1019.85
2023-04-17T05:51:28.068Z,1019.85
2023-04-17T05:52:28.089Z,1019.86
2023-04-17T05:53:28.064Z,1019.88
2023-04-17T05:54:28.062Z,1019.87
2023-04-17T05:55:28.069Z,1019.90
2023-04-17T05:56:28.060Z,1019.88
2023-04-17T05:57:28.063Z,1019.87
2023-04-17T05:58:28.058Z,1019.89
2023-04-17T05:59:28.053Z,1019.89
2023-04-17T06:00:28.072Z,1019.91
2023-04-17T06:01:28.043Z,1019.90
2023-04-17T06:02:28.535Z,1019.92
2023-04-17T06:03:28.246Z,1019.91
2023-04-17T06:04:28.266Z,1019.94
2023-04-17T06:05:28.150Z,1019.95
2023-04-17T06:06:28.047Z,1019.96
2023-04-17T06:07:28.032Z,1019.98
2023-04-17T06:08:28.070Z,1019.94
2023-04-17T06:09:28.024Z,1019.97
2023-04-17T06:10:28.058Z,1019.94
2023-04-17T06:11:28.021Z,1019.97
2023-04-17T06:12:28.022Z,1019.99
2023-04-17T06:13:28.014Z,1019.96
2023-04-17T06:14:28.018Z,1019.97
2023-04-17T06:15:28.013Z,1019.99
2023-04-17T06:16:28.050Z,1020.01
2023-04-17T06:17:28.037Z,1020.08
2023-04-17T06:18:28.014Z,1020.00
2023-04-17T06:19:28.004Z,1020.01
2023-04-17T06:20:28.043Z,1019.97
2023-04-17T06:21:28.016Z,1020.00
2023-04-17T06:22:27.996Z,1020.08
2023-04-17T06:23:28.000Z,1020.05
2023-04-17T06:24:28.025Z,1020.04
2023-04-17T06:25:27.989Z,1020.03
2023-04-17T06:26:28.003Z,1020.06
2023-04-17T06:27:27.994Z,1020.13
2023-04-17T06:28:28.000Z,1020.12
2023-04-17T06:29:27.977Z,1020.20
2023-04-17T06:30:27.989Z,1020.17
2023-04-17T06:31:28.060Z,1020.15
2023-04-17T06:32:28.008Z,1020.16
2023-04-17T06:33:27.982Z,1020.16
2023-04-17T06:34:27.973Z,1020.17
2023-04-17T06:35:27.965Z,1020.18
2023-04-17T06:36:27.974Z,1020.17
2023-04-17T06:37:27.966Z,1020.19
2023-04-17T06:38:27.966Z,1020.17
2023-04-17T06:39:27.966Z,1020.22
2023-04-17T06:40:27.983Z,1020.22
2023-04-17T06:41:27.960Z,1020.20
2023-04-17T06:42:27.954Z,1020.25
2023-04-17T06:43:27.952Z,1020.21
2023-04-17T06:44:27.969Z,1020.25
2023-04-17T06:45:27.953Z,1020.22
2023-04-17T06:46:27.999Z,1020.30
2023-04-17T06:47:27.973Z,1020.32
2023-04-17T06:48:27.945Z,1020.31
2023-04-17T06:49:27.939Z,1020.33
2023-04-17T06:50:27.958Z,1020.30
2023-04-17T06:51:27.941Z,1020.35
2023-04-17T06:52:27.938Z,1020.38
2023-04-17T06:53:27.933Z,1020.34
2023-04-17T06:54:27.933Z,1020.38
2023-04-17T06:55:27.929Z,1020.41
2023-04-17T06:56:27.998Z,1020.37
2023-04-17T06:57:27.923Z,1020.42
2023-04-17T06:58:27.934Z,1020.38
2023-04-17T06:59:27.922Z,1020.40
2023-04-17T07:00:27.936Z,1020.42
2023-04-17T07:01:27.980Z,1020.42
2023-04-17T07:02:28.013Z,1020.44
2023-04-17T07:03:28.112Z,1020.45
2023-04-17T07:04:27.908Z,1020.44
2023-04-17T07:05:27.945Z,1020.45
2023-04-17T07:06:27.908Z,1020.45
2023-04-17T07:07:27.906Z,1020.47
2023-04-17T07:08:27.901Z,1020.45
2023-04-17T07:09:27.917Z,1020.49
2023-04-17T07:10:27.904Z,1020.49
2023-04-17T07:11:27.900Z,1020.51
2023-04-17T07:12:27.930Z,1020.51
2023-04-17T07:13:27.890Z,1020.53
2023-04-17T07:14:27.892Z,1020.53
2023-04-17T07:15:27.904Z,1020.53
2023-04-17T07:16:27.912Z,1020.49
2023-04-17T07:17:27.943Z,1020.55
2023-04-17T07:18:27.879Z,1020.53
2023-04-17T07:19:27.885Z,1020.50
2023-04-17T07:20:27.900Z,1020.53
2023-04-17T07:21:27.895Z,1020.58
2023-04-17T07:22:27.877Z,1020.55
2023-04-17T07:23:27.903Z,1020.55
2023-04-17T07:24:27.884Z,1020.57
2023-04-17T07:25:27.890Z,1020.58
2023-04-17T07:26:27.872Z,1020.59
2023-04-17T07:27:27.914Z,1020.63
2023-04-17T07:28:28.093Z,1020.64
2023-04-17T07:29:27.879Z,1020.71
2023-04-17T07:30:27.882Z,1020.71
2023-04-17T07:31:27.879Z,1020.63
2023-04-17T07:32:27.902Z,1020.70
2023-04-17T07:33:27.857Z,1020.70
2023-04-17T07:34:27.856Z,1020.77
2023-04-17T07:35:27.882Z,1020.76
2023-04-17T07:36:27.840Z,1020.75
2023-04-17T07:37:27.847Z,1020.75
2023-04-17T07:38:27.854Z,1020.75
2023-04-17T07:39:27.848Z,1020.84
2023-04-17T07:40:27.853Z,1020.87
2023-04-17T07:41:27.839Z,1020.78
2023-04-17T07:42:27.840Z,1020.72
2023-04-17T07:43:27.836Z,1020.81
2023-04-17T07:44:27.878Z,1020.82
2023-04-17T07:45:27.858Z,1020.76
2023-04-17T07:46:27.854Z,1020.85
2023-04-17T07:47:27.865Z,1020.93
2023-04-17T07:48:27.828Z,1020.99
2023-04-17T07:49:27.825Z,1020.85
2023-04-17T07:50:27.836Z,1020.81
2023-04-17T07:51:27.822Z,1020.82
2023-04-17T07:52:27.825Z,1021.11
2023-04-17T07:53:27.817Z,1020.95
2023-04-17T07:54:27.826Z,1021.07
2023-04-17T07:55:27.834Z,1020.95
2023-04-17T07:56:27.819Z,1020.94
2023-04-17T07:57:27.824Z,1020.89
2023-04-17T07:58:27.814Z,1020.90
2023-04-17T07:59:27.810Z,1020.93
2023-04-17T08:00:27.827Z,1020.91
2023-04-17T08:01:27.825Z,1020.93
2023-04-17T08:02:27.867Z,1020.92
2023-04-17T08:03:27.958Z,1020.94
2023-04-17T08:04:27.954Z,1020.95
2023-04-17T08:05:27.930Z,1020.98
2023-04-17T08:06:27.792Z,1020.92
2023-04-17T08:07:27.795Z,1020.96
2023-04-17T08:08:27.798Z,1020.95
2023-04-17T08:09:27.798Z,1021.01
2023-04-17T08:10:27.798Z,1020.98
2023-04-17T08:11:27.788Z,1021.00
2023-04-17T08:12:27.785Z,1021.05
2023-04-17T08:13:27.789Z,1021.04
2023-04-17T08:14:27.787Z,1021.08
2023-04-17T08:15:27.799Z,1021.09
2023-04-17T08:16:27.823Z,1021.04
2023-04-17T08:17:27.840Z,1021.11
2023-04-17T08:18:27.816Z,1021.07
2023-04-17T08:19:27.783Z,1021.11
2023-04-17T08:20:27.784Z,1021.11
2023-04-17T08:21:27.802Z,1021.20
2023-04-17T08:22:27.789Z,1021.14
2023-04-17T08:23:27.793Z,1021.13
2023-04-17T08:24:27.774Z,1021.10
2023-04-17T08:25:27.798Z,1021.11
2023-04-17T08:26:27.785Z,1021.13
2023-04-17T08:27:27.775Z,1021.13
2023-04-17T08:28:27.772Z,1021.18
2023-04-17T08:29:27.793Z,1021.19
2023-04-17T08:30:27.763Z,1021.18
2023-04-17T08:31:27.882Z,1021.19
2023-04-17T08:32:27.813Z,1021.26
2023-04-17T08:33:27.766Z,1021.36
2023-04-17T08:34:27.757Z,1021.22
2023-04-17T08:35:27.763Z,1021.23
2023-04-17T08:36:27.789Z,1021.17
2023-04-17T08:37:27.761Z,1021.19
2023-04-17T08:38:27.760Z,1021.31
2023-04-17T08:39:27.766Z,1021.22
2023-04-17T08:40:27.767Z,1021.25
2023-04-17T08:41:27.764Z,1021.26
2023-04-17T08:42:27.753Z,1021.20
2023-04-17T08:43:27.751Z,1021.18
2023-04-17T08:44:27.755Z,1021.19
2023-04-17T08:45:27.757Z,1021.20
2023-04-17T08:46:27.783Z,1021.21
2023-04-17T08:47:27.778Z,1021.22
2023-04-17T08:48:27.769Z,1021.22
2023-04-17T08:49:27.754Z,1021.23
2023-04-17T08:50:27.754Z,1021.21
2023-04-17T08:51:27.755Z,1021.25
2023-04-17T08:52:27.751Z,1021.28
2023-04-17T08:53:27.748Z,1021.32
2023-04-17T08:54:27.740Z,1021.30
2023-04-17T08:55:27.735Z,1021.35
2023-04-17T08:56:27.731Z,1021.39
2023-04-17T08:57:27.739Z,1021.43
2023-04-17T08:58:28.808Z,1021.37
2023-04-17T08:59:27.739Z,1021.45
2023-04-17T09:00:27.749Z,1021.35
2023-04-17T09:01:27.779Z,1021.43
2023-04-17T09:02:28.092Z,1021.43
2023-04-17T09:03:27.868Z,1021.38
2023-04-17T09:04:27.796Z,1021.43
2023-04-17T09:05:27.729Z,1021.46
2023-04-17T09:06:27.730Z,1021.45
2023-04-17T09:07:27.723Z,1021.48
2023-04-17T09:08:27.712Z,1021.47
2023-04-17T09:09:27.721Z,1021.50
2023-04-17T09:10:27.710Z,1021.57
2023-04-17T09:11:27.720Z,1021.60
2023-04-17T09:12:27.714Z,1021.58
2023-04-17T09:13:27.721Z,1021.52
2023-04-17T09:14:27.717Z,1021.52
2023-04-17T09:15:27.717Z,1021.51
2023-04-17T09:16:27.748Z,1021.50
2023-04-17T09:17:27.740Z,1021.53
2023-04-17T09:18:27.709Z,1021.57
2023-04-17T09:19:27.715Z,1021.51
2023-04-17T09:20:27.727Z,1021.54
2023-04-17T09:21:27.710Z,1021.56
2023-04-17T09:22:27.706Z,1021.50
2023-04-17T09:23:27.706Z,1021.51
2023-04-17T09:24:27.709Z,1021.58
2023-04-17T09:25:27.729Z,1021.67
2023-04-17T09:26:27.703Z,1021.73
2023-04-17T09:27:27.714Z,1021.82
2023-04-17T09:28:27.729Z,1021.66
2023-04-17T09:29:27.707Z,1021.81
2023-04-17T09:30:27.715Z,1021.69
2023-04-17T09:31:27.780Z,1021.64
2023-04-17T09:32:27.716Z,1021.65
2023-04-17T09:33:27.706Z,1021.60
2023-04-17T09:34:27.701Z,1021.54
2023-04-17T09:35:27.717Z,1021.52
2023-04-17T09:36:27.775Z,1021.49
2023-04-17T09:37:27.698Z,1021.49
2023-04-17T09:38:27.698Z,1021.50
2023-04-17T09:39:27.705Z,1021.51
2023-04-17T09:40:27.707Z,1021.54
2023-04-17T09:41:27.699Z,1021.57
2023-04-17T09:42:27.731Z,1021.52
2023-04-17T09:43:27.691Z,1021.55
2023-04-17T09:44:27.700Z,1021.56
2023-04-17T09:45:27.694Z,1021.70
2023-04-17T09:46:27.728Z,1021.75
2023-04-17T09:47:27.727Z,1021.89
2023-04-17T09:48:27.684Z,1022.07
2023-04-17T09:49:27.684Z,1021.66
2023-04-17T09:50:27.687Z,1021.73
2023-04-17T09:51:27.690Z,1021.82
2023-04-17T09:52:27.743Z,1021.72
2023-04-17T09:53:27.704Z,1021.65
2023-04-17T09:54:27.679Z,1021.54
2023-04-17T09:55:27.691Z,1021.59
2023-04-17T09:56:27.675Z,1021.62
2023-04-17T09:57:27.685Z,1021.64
2023-04-17T09:58:27.676Z,1021.60
2023-04-17T09:59:27.677Z,1021.63
2023-04-17T10:00:27.911Z,1021.61
2023-04-17T10:01:27.897Z,1021.61
2023-04-17T10:02:27.912Z,1021.77
2023-04-17T10:03:27.855Z,1021.91
2023-04-17T10:04:27.753Z,1022.14
2023-04-17T10:05:27.676Z,1021.91
2023-04-17T10:06:27.667Z,1021.77
2023-04-17T10:07:27.675Z,1021.80
2023-04-17T10:08:27.686Z,1021.80
2023-04-17T10:09:27.676Z,1021.73
2023-04-17T10:10:27.672Z,1021.71
2023-04-17T10:11:27.671Z,1021.87
2023-04-17T10:12:27.667Z,1021.93
2023-04-17T10:13:27.690Z,1022.09
2023-04-17T10:14:27.678Z,1021.85
2023-04-17T10:15:27.673Z,1021.71
2023-04-17T10:16:27.719Z,1021.76
2023-04-17T10:17:27.690Z,1021.66
2023-04-17T10:18:27.662Z,1021.63
2023-04-17T10:19:27.670Z,1021.83
2023-04-17T10:20:27.660Z,1021.84
2023-04-17T10:21:27.663Z,1022.20
2023-04-17T10:22:27.658Z,1022.31
2023-04-17T10:23:27.700Z,1021.93
2023-04-17T10:24:27.692Z,1021.73
2023-04-17T10:25:27.671Z,1021.78
2023-04-17T10:26:27.665Z,1021.78
2023-04-17T10:27:27.663Z,1021.76
2023-04-17T10:28:27.664Z,1021.71
2023-04-17T10:29:27.672Z,1021.75
2023-04-17T10:30:27.664Z,1021.70
2023-04-17T10:31:27.688Z,1021.62
2023-04-17T10:32:27.731Z,1021.66
2023-04-17T10:33:27.667Z,1021.62
2023-04-17T10:34:27.665Z,1021.61
2023-04-17T10:35:27.673Z,1021.71
2023-04-17T10:36:27.670Z,1021.71
2023-04-17T10:37:27.670Z,1021.68
2023-04-17T10:38:27.664Z,1021.64
2023-04-17T10:39:27.666Z,1021.60
2023-04-17T10:40:27.683Z,1021.65
2023-04-17T10:41:27.662Z,1021.68
2023-04-17T10:42:27.659Z,1021.60
2023-04-17T10:43:27.663Z,1021.57
2023-04-17T10:44:27.665Z,1021.49
2023-04-17T10:45:27.662Z,1021.48
2023-04-17T10:46:27.758Z,1021.52
2023-04-17T10:47:27.685Z,1021.51
2023-04-17T10:48:27.711Z,1021.54
2023-04-17T10:49:27.676Z,1021.54
2023-04-17T10:50:27.657Z,1021.52
2023-04-17T10:51:27.705Z,1021.53
2023-04-17T10:52:27.655Z,1021.54
2023-04-17T10:53:27.659Z,1021.53
2023-04-17T10:54:27.677Z,1021.57
2023-04-17T10:55:27.664Z,1021.54
2023-04-17T10:56:27.678Z,1021.49
2023-04-17T10:57:27.664Z,1021.50
2023-04-17T10:58:31.622Z,1021.48
2023-04-17T10:59:27.669Z,1021.50
2023-04-17T11:00:27.667Z,1021.46
2023-04-17T11:01:29.016Z,1021.48
2023-04-17T11:02:27.712Z,1021.50
2023-04-17T11:03:27.789Z,1021.51
2023-04-17T11:04:27.696Z,1021.56
2023-04-17T11:05:27.660Z,1021.54
2023-04-17T11:06:27.655Z,1021.52
2023-04-17T11:07:27.665Z,1021.48
2023-04-17T11:08:27.657Z,1021.52
2023-04-17T11:09:27.660Z,1021.49
2023-04-17T11:10:27.655Z,1021.50
2023-04-17T11:11:40.465Z,1021.50
2023-04-17T11:12:27.677Z,1021.54
2023-04-17T11:13:27.654Z,1021.50
2023-04-17T11:14:27.657Z,1021.50
2023-04-17T11:15:27.660Z,1021.53
2023-04-17T11:16:27.699Z,1021.53
2023-04-17T11:17:27.728Z,1021.54
2023-04-17T11:18:27.652Z,1021.53
2023-04-17T11:19:27.685Z,1021.51
2023-04-17T11:20:27.656Z,1021.57
2023-04-17T11:21:27.652Z,1021.56
2023-04-17T11:22:27.650Z,1021.57
2023-04-17T11:23:27.646Z,1021.58
2023-04-17T11:24:27.645Z,1021.57
2023-04-17T11:25:27.696Z,1021.59
2023-04-17T11:26:27.648Z,1021.61
2023-04-17T11:27:27.640Z,1021.64
2023-04-17T11:28:27.854Z,1021.61
2023-04-17T11:29:27.696Z,1021.69
2023-04-17T11:30:27.638Z,1021.68
2023-04-17T11:31:27.660Z,1021.70
2023-04-17T11:32:27.708Z,1021.69
2023-04-17T11:33:27.640Z,1021.71
2023-04-17T11:34:27.634Z,1021.71
2023-04-17T11:35:27.633Z,1021.64
2023-04-17T11:36:27.648Z,1021.66
2023-04-17T11:37:27.641Z,1021.70
2023-04-17T11:38:27.640Z,1021.69
2023-04-17T11:39:27.634Z,1021.73
2023-04-17T11:40:27.635Z,1021.76
2023-04-17T11:41:27.646Z,1021.73
2023-04-17T11:42:27.642Z,1021.75
2023-04-17T11:43:27.637Z,1021.72
2023-04-17T11:44:27.684Z,1021.79
2023-04-17T11:45:27.658Z,1021.79
2023-04-17T11:46:27.669Z,1021.76
2023-04-17T11:47:27.650Z,1021.80
2023-04-17T11:48:27.628Z,1021.79
2023-04-17T11:49:27.694Z,1021.74
2023-04-17T11:50:27.633Z,1021.76
2023-04-17T11:51:27.638Z,1021.79
2023-04-17T11:52:27.625Z,1021.79
2023-04-17T11:53:27.625Z,1021.81
2023-04-17T11:54:27.637Z,1021.77
2023-04-17T11:55:27.634Z,1021.76
2023-04-17T11:56:27.634Z,1021.72
2023-04-17T11:57:27.629Z,1021.76
2023-04-17T11:58:30.070Z,1021.75
2023-04-17T11:59:27.648Z,1021.73
2023-04-17T12:00:27.639Z,1021.72
2023-04-17T12:01:27.617Z,1021.73
2023-04-17T12:02:27.779Z,1021.77
2023-04-17T12:03:27.886Z,1021.76
2023-04-17T12:04:27.796Z,1021.78
2023-04-17T12:05:27.894Z,1021.78
2023-04-17T12:06:27.607Z,1021.78